Time;durP1;ratioP1;P1;durP2;ratioP2;P2;SDS_P1;SDS_P2;PMS_P1;PMS_P2;Temp;Humidity;BMP_temperature;BMP_pressure;BME280_temperature;BME280_humidity;BME280_pressure;Samples;Min_cycle;Max_cycle;Signal;HPM_P1;HPM_P2
2023/01/24 00:01:31;;;;;;;23.30;13.05;;;;;;;2.89;82.92;103187.66;5093102;28;20064;-51
2023/01/24 00:03:57;;;;;;;25.30;13.07;;;;;;;2.86;83.01;103191.22;5093125;28;20081;-52
2023/01/24 00:06:24;;;;;;;25.77;13.02;;;;;;;2.82;82.89;103191.34;5094148;28;20055;-50
2023/01/24 00:08:52;;;;;;;23.45;12.70;;;;;;;2.82;82.70;103193.97;5096093;28;20405;-52
2023/01/24 00:11:19;;;;;;;24.38;13.10;;;;;;;2.79;83.13;103188.84;5096619;28;20040;-52
2023/01/24 00:13:45;;;;;;;22.95;12.15;;;;;;;2.66;83.35;103183.94;5097004;28;20076;-53
2023/01/24 00:16:15;;;;;;;22.88;12.45;;;;;;;2.63;83.48;103186.63;5096226;28;20398;-51
2023/01/24 00:18:43;;;;;;;27.02;14.13;;;;;;;2.78;83.27;103182.72;5096515;28;20089;-51
2023/01/24 00:21:12;;;;;;;26.10;13.52;;;;;;;2.71;83.41;103188.19;5096549;28;20040;-50
2023/01/24 00:23:40;;;;;;;25.05;12.68;;;;;;;2.79;83.03;103196.69;5095309;28;20053;-52
2023/01/24 00:26:07;;;;;;;23.42;13.32;;;;;;;2.86;83.46;103196.47;5096668;28;20047;-52
2023/01/24 00:28:34;;;;;;;24.08;12.50;;;;;;;2.64;83.69;103190.97;5096091;28;20068;-52
2023/01/24 00:31:02;;;;;;;23.33;12.70;;;;;;;2.75;83.13;103195.94;5095373;28;20501;-51
2023/01/24 00:33:30;;;;;;;20.92;12.23;;;;;;;2.68;83.06;103199.63;5096286;28;20105;-52
2023/01/24 00:35:57;;;;;;;22.35;12.25;;;;;;;2.68;83.84;103197.00;5096214;28;20139;-51
2023/01/24 00:38:24;;;;;;;24.17;12.63;;;;;;;2.66;83.30;103204.03;5095844;28;20032;-52
2023/01/24 00:40:50;;;;;;;25.05;12.80;;;;;;;2.67;83.26;103196.16;5096024;28;20123;-52
2023/01/24 00:43:17;;;;;;;26.63;13.32;;;;;;;2.73;83.60;103189.88;5094735;28;20044;-52
2023/01/24 00:45:45;;;;;;;23.17;12.93;;;;;;;2.80;83.09;103191.41;5096106;28;20050;-52
2023/01/24 00:48:12;;;;;;;24.48;13.15;;;;;;;2.76;83.54;103184.53;5096072;28;20101;-52
2023/01/24 00:50:40;;;;;;;20.95;11.80;;;;;;;2.87;82.63;103185.09;5095974;28;20047;-51
2023/01/24 00:53:07;;;;;;;23.83;12.40;;;;;;;2.62;83.42;103190.16;5096145;28;20584;-50
2023/01/24 00:55:34;;;;;;;23.60;12.18;;;;;;;2.82;83.13;103197.47;5087113;28;20501;-53
2023/01/24 00:58:00;;;;;;;23.75;12.50;;;;;;;2.83;83.21;103187.84;5074230;28;20053;-52
2023/01/24 01:00:28;;;;;;;22.80;12.07;;;;;;;2.86;82.67;103188.59;5075469;28;20036;-52
2023/01/24 01:02:54;;;;;;;23.77;12.73;;;;;;;2.96;82.67;103193.59;5075253;28;20094;-50
2023/01/24 01:05:21;;;;;;;21.92;12.65;;;;;;;3.06;81.69;103193.28;5075397;28;20049;-52
2023/01/24 01:07:48;;;;;;;24.05;12.15;;;;;;;2.88;82.80;103185.94;5090011;28;20106;-51
2023/01/24 01:10:17;;;;;;;22.92;11.70;;;;;;;3.00;82.54;103189.97;5095519;28;20040;-52
2023/01/24 01:12:43;;;;;;;22.48;12.32;;;;;;;3.08;82.09;103188.00;5095694;28;20083;-50
2023/01/24 01:15:10;;;;;;;21.13;12.13;;;;;;;2.86;81.67;103188.59;5095764;28;20052;-52
2023/01/24 01:17:37;;;;;;;26.33;13.10;;;;;;;2.90;82.00;103181.50;5095521;28;20079;-52
2023/01/24 01:20:05;;;;;;;24.27;12.77;;;;;;;2.91;82.53;103177.13;5094612;28;20584;-52
2023/01/24 01:22:31;;;;;;;23.42;11.88;;;;;;;3.00;81.77;103185.59;5095598;28;20090;-52
2023/01/24 01:24:58;;;;;;;23.23;11.48;;;;;;;2.96;81.18;103188.34;5095034;28;20379;-52
2023/01/24 01:27:25;;;;;;;20.17;10.60;;;;;;;2.93;81.61;103191.94;5095498;28;20113;-53
2023/01/24 01:29:52;;;;;;;21.10;11.52;;;;;;;2.93;82.03;103196.28;5095220;28;20047;-51
2023/01/24 01:32:19;;;;;;;22.63;12.05;;;;;;;2.93;82.65;103188.41;5095246;28;20490;-51
2023/01/24 01:34:46;;;;;;;25.98;11.38;;;;;;;2.87;82.34;103197.31;5095319;28;20048;-52
2023/01/24 01:37:12;;;;;;;21.05;11.15;;;;;;;2.90;82.57;103194.63;5094937;28;20048;-52
2023/01/24 01:39:40;;;;;;;23.02;11.52;;;;;;;2.96;82.18;103202.31;5095100;28;20067;-51
2023/01/24 01:42:06;;;;;;;25.52;12.15;;;;;;;2.99;82.21;103196.97;5094800;28;20076;-53
2023/01/24 01:44:42;;;;;;;21.52;11.88;;;;;;;2.99;82.06;103204.00;5095076;28;20040;-51
2023/01/24 01:47:25;;;;;;;21.50;10.82;;;;;;;2.83;81.77;103200.94;5094865;28;20036;-53
2023/01/24 01:50:13;;;;;;;19.65;10.63;;;;;;;2.66;82.03;103204.91;5094488;28;20409;-52
2023/01/24 01:52:42;;;;;;;18.95;10.93;;;;;;;2.78;82.39;103210.69;5094760;28;20036;-50
2023/01/24 01:55:15;;;;;;;21.60;11.13;;;;;;;2.75;82.25;103209.03;5094861;28;20131;-51
2023/01/24 01:57:43;;;;;;;19.55;10.32;;;;;;;2.71;82.37;103206.53;5094623;28;20075;-50
2023/01/24 02:00:15;;;;;;;21.85;11.10;;;;;;;2.68;82.35;103200.47;5094350;28;20143;-50
2023/01/24 02:02:43;;;;;;;;;;;;;;;2.72;82.96;103198.63;5095038;28;20444;-52
2023/01/24 02:05:13;;;;;;;21.13;11.25;;;;;;;2.69;82.27;103199.59;5094545;28;19920;-53
2023/01/24 02:08:00;;;;;;;20.25;10.75;;;;;;;2.47;82.77;103196.69;5094011;28;20109;-52
2023/01/24 02:11:37;;;;;;;20.10;10.68;;;;;;;2.57;83.32;103199.91;5094351;28;20039;-52
2023/01/24 02:13:15;;;;;;;18.38;9.90;;;;;;;2.60;82.96;103202.47;5094359;28;20051;-53
2023/01/24 02:16:16;;;;;;;18.38;10.00;;;;;;;2.74;83.33;103196.81;5094383;28;20687;-50
2023/01/24 02:18:37;;;;;;;20.05;10.73;;;;;;;2.76;82.99;103204.63;5093975;28;20509;-50
2023/01/24 02:21:08;;;;;;;19.80;10.02;;;;;;;2.80;81.66;103209.78;5093924;28;20075;-50
2023/01/24 02:23:53;;;;;;;18.88;10.57;;;;;;;2.62;81.46;103203.28;5094351;28;20123;-52
2023/01/24 02:26:25;;;;;;;20.17;9.82;;;;;;;2.58;81.54;103200.75;5094409;28;20048;-51
2023/01/24 02:29:12;;;;;;;18.27;10.05;;;;;;;2.61;81.78;103195.44;5093684;28;20062;-52
2023/01/24 02:32:00;;;;;;;18.63;9.95;;;;;;;2.53;81.90;103197.41;5094431;28;20044;-50
2023/01/24 02:34:28;;;;;;;17.65;9.75;;;;;;;2.52;81.40;103186.06;5093649;28;20101;-51
2023/01/24 02:36:58;;;;;;;17.35;9.38;;;;;;;2.66;81.87;103190.94;5094230;28;20059;-52
2023/01/24 02:39:29;;;;;;;18.55;9.75;;;;;;;2.63;81.77;103186.63;5093688;28;20040;-51
2023/01/24 02:42:05;;;;;;;17.83;9.50;;;;;;;2.49;81.47;103178.28;5094130;28;20044;-51
2023/01/24 02:44:42;;;;;;;16.23;8.90;;;;;;;2.47;81.87;103180.97;5093663;28;20044;-51
2023/01/24 02:47:09;;;;;;;16.80;8.77;;;;;;;2.45;81.53;103193.22;5093998;28;20040;-52
2023/01/24 02:49:35;;;;;;;16.58;8.60;;;;;;;2.39;81.61;103195.19;5093546;28;20040;-52
2023/01/24 02:54:49;;;;;;;19.25;8.80;;;;;;;2.50;81.33;103183.50;5093855;28;20086;-50
2023/01/24 03:00:06;;;;;;;16.58;8.98;;;;;;;2.79;80.94;103181.81;5092537;28;20070;-50
2023/01/24 03:02:33;;;;;;;16.90;8.73;;;;;;;2.83;80.36;103178.19;5093282;28;20051;-51
2023/01/24 03:05:00;;;;;;;17.10;8.73;;;;;;;2.79;80.52;103175.72;5093633;28;20068;-52
2023/01/24 03:07:41;;;;;;;16.52;8.80;;;;;;;2.79;80.71;103178.34;5092927;28;20044;-50
2023/01/24 03:10:13;;;;;;;17.48;8.75;;;;;;;2.55;79.72;103167.66;5093444;28;20072;-51
2023/01/24 03:34:56;;;;;;;13.93;7.00;;;;;;;2.73;80.04;103170.63;5093162;28;20050;-50
2023/01/24 03:40:16;;;;;;;12.45;6.75;;;;;;;2.68;79.08;103174.25;5092878;28;20050;-52
2023/01/24 03:42:48;;;;;;;15.07;7.72;;;;;;;2.66;79.71;103173.44;5096693;28;20056;-50
2023/01/24 03:45:21;;;;;;;12.75;6.70;;;;;;;2.56;78.82;103184.22;5097353;28;20405;-50
2023/01/24 03:47:55;;;;;;;12.85;6.80;;;;;;;2.52;79.33;103175.59;5097248;28;20048;-52
2023/01/24 03:53:14;;;;;;;14.48;7.03;;;;;;;2.67;79.97;103180.41;5096835;28;20051;-52
2023/01/24 03:55:43;;;;;;;12.27;6.05;;;;;;;2.65;79.59;103182.19;5096855;28;20420;-51
2023/01/24 03:58:12;;;;;;;12.27;6.88;;;;;;;2.77;79.86;103177.53;5096865;28;20070;-51
2023/01/24 04:00:40;;;;;;;12.25;6.63;;;;;;;2.70;79.25;103182.09;5096687;28;20405;-52
2023/01/24 04:03:23;;;;;;;14.85;7.07;;;;;;;2.53;79.13;103177.31;5097111;28;20040;-50
2023/01/24 04:05:50;;;;;;;15.18;6.35;;;;;;;2.52;78.73;103172.97;5096921;28;20044;-51
2023/01/24 04:08:18;;;;;;;13.13;6.60;;;;;;;2.52;78.75;103182.59;5096000;28;20101;-51
2023/01/24 04:10:46;;;;;;;11.77;6.50;;;;;;;2.39;79.88;103172.44;5096623;28;20055;-52
2023/01/24 04:13:13;;;;;;;14.82;6.97;;;;;;;2.54;79.11;103179.03;5096883;28;20067;-51
2023/01/24 04:15:41;;;;;;;13.63;6.95;;;;;;;2.53;79.75;103176.44;5096568;28;20056;-50
2023/01/24 04:18:27;;;;;;;13.35;6.93;;;;;;;2.62;79.06;103171.81;5096655;28;20070;-50
2023/01/24 04:20:55;;;;;;;13.27;7.13;;;;;;;2.56;79.46;103182.47;5095978;28;20513;-50
2023/01/24 04:23:24;;;;;;;15.10;7.22;;;;;;;2.62;78.65;103174.44;5096472;28;20098;-49
2023/01/24 04:25:54;;;;;;;13.73;7.05;;;;;;;2.58;78.96;103180.66;5096738;28;20071;-51
2023/01/24 04:28:22;;;;;;;14.35;7.25;;;;;;;2.44;79.00;103170.56;5096343;28;20052;-49
2023/01/24 04:30:57;;;;;;;12.38;6.55;;;;;;;2.47;79.17;103173.09;5096651;28;20512;-49
2023/01/24 04:33:40;;;;;;;14.38;6.65;;;;;;;2.52;79.40;103166.88;5096424;28;20074;-50
2023/01/24 04:36:09;;;;;;;15.45;6.82;;;;;;;2.36;79.35;103162.03;5096479;28;20040;-50
2023/01/24 04:38:36;;;;;;;12.88;6.85;;;;;;;2.51;79.26;103168.66;5096208;28;20080;-51
2023/01/24 04:41:12;;;;;;;14.50;6.93;;;;;;;2.36;79.51;103171.66;5096206;28;20093;-50
2023/01/24 04:43:40;;;;;;;13.20;7.30;;;;;;;2.47;79.32;103174.84;5095868;28;20143;-50
2023/01/24 04:46:07;;;;;;;13.77;7.40;;;;;;;2.44;79.34;103173.19;5096185;28;20074;-50
2023/01/24 04:48:52;;;;;;;12.65;6.65;;;;;;;2.43;79.73;103171.44;5096249;28;20052;-50
2023/01/24 04:51:24;;;;;;;13.93;7.10;;;;;;;2.52;79.53;103167.72;5095675;28;20052;-50
2023/01/24 04:53:51;;;;;;;13.48;7.13;;;;;;;2.61;79.37;103169.25;5095846;28;20056;-50
2023/01/24 04:56:22;;;;;;;14.02;6.75;;;;;;;2.48;79.16;103180.06;5094132;28;20055;-51
2023/01/24 04:58:48;;;;;;;14.35;7.05;;;;;;;2.46;78.55;103178.38;5090824;28;20040;-50
2023/01/24 05:01:16;;;;;;;14.73;7.30;;;;;;;2.55;78.95;103180.75;5094401;28;20058;-50
2023/01/24 05:03:58;;;;;;;14.40;7.13;;;;;;;2.54;79.07;103173.78;5095068;28;20043;-51
2023/01/24 05:06:29;;;;;;;15.02;6.68;;;;;;;2.56;78.54;103177.22;5095349;28;20089;-52
2023/01/24 05:08:58;;;;;;;13.90;7.38;;;;;;;2.54;80.11;103186.03;5095088;28;20097;-51
2023/01/24 05:11:32;;;;;;;13.27;7.13;;;;;;;2.50;78.73;103183.50;5095372;28;20123;-51
2023/01/24 05:14:02;;;;;;;14.70;7.47;;;;;;;2.61;78.55;103179.72;5095356;28;20052;-51
2023/01/24 05:16:29;;;;;;;15.40;7.53;;;;;;;2.63;78.83;103176.13;5095797;28;20116;-51
2023/01/24 05:18:57;;;;;;;13.30;7.32;;;;;;;2.64;78.88;103175.25;5094932;28;20048;-53
2023/01/24 05:21:24;;;;;;;14.18;7.47;;;;;;;2.56;78.13;103168.50;5095401;28;20432;-50
2023/01/24 05:23:52;;;;;;;14.10;7.10;;;;;;;2.43;78.92;103173.22;5095115;28;20485;-51
2023/01/24 05:26:22;;;;;;;13.85;7.68;;;;;;;2.36;79.70;103177.75;5095398;28;20055;-50
2023/01/24 05:28:51;;;;;;;15.90;7.90;;;;;;;2.27;79.44;103181.50;5095193;28;20127;-52
2023/01/24 05:31:18;;;;;;;14.65;7.72;;;;;;;2.30;79.66;103189.25;5095321;28;20044;-52
2023/01/24 05:33:45;;;;;;;14.70;7.88;;;;;;;2.37;79.26;103183.88;5095064;28;20048;-52
2023/01/24 05:36:15;;;;;;;17.33;8.55;;;;;;;2.44;79.52;103198.53;5094820;28;20044;-53
2023/01/24 05:38:44;;;;;;;16.20;7.82;;;;;;;2.46;79.03;103189.72;5095036;28;20055;-53
2023/01/24 05:41:15;;;;;;;18.05;9.00;;;;;;;2.63;78.91;103197.09;5094789;28;20052;-50
2023/01/24 05:43:43;;;;;;;17.88;7.93;;;;;;;2.58;78.56;103198.13;5094970;28;20050;-52
2023/01/24 05:46:13;;;;;;;16.83;8.45;;;;;;;2.57;78.54;103193.81;5094927;28;20071;-50
2023/01/24 05:48:48;;;;;;;15.98;8.50;;;;;;;2.65;78.26;103197.06;5095062;28;20051;-50
2023/01/24 05:51:19;;;;;;;15.90;7.88;;;;;;;2.43;78.76;103205.50;5095032;28;20126;-50
2023/01/24 05:53:47;;;;;;;17.30;9.20;;;;;;;2.60;79.03;103197.22;5094404;28;20109;-53
2023/01/24 05:56:25;;;;;;;15.80;8.18;;;;;;;2.47;78.73;103211.53;5094597;28;20032;-50
2023/01/24 05:58:52;;;;;;;15.02;7.70;;;;;;;2.33;78.46;103205.78;5094148;28;20448;-52
2023/01/24 06:01:21;;;;;;;17.80;8.82;;;;;;;2.36;78.97;103221.44;5094424;28;20447;-51
2023/01/24 06:03:51;;;;;;;17.05;8.88;;;;;;;2.24;78.88;103213.00;5093466;28;20028;-52
2023/01/24 06:06:21;;;;;;;17.58;9.13;;;;;;;2.37;79.75;103212.69;5094513;28;20059;-53
2023/01/24 06:08:48;;;;;;;19.48;9.38;;;;;;;2.47;79.49;103222.00;5093744;28;20089;-51
2023/01/24 06:11:19;;;;;;;16.88;8.75;;;;;;;2.20;79.69;103215.72;5094646;28;20430;-52
2023/01/24 06:13:47;;;;;;;20.00;9.60;;;;;;;2.24;79.84;103223.47;5094551;28;20040;-50
2023/01/24 06:16:19;;;;;;;18.75;9.85;;;;;;;2.37;79.37;103220.56;5094262;28;20374;-50
2023/01/24 06:18:47;;;;;;;18.38;8.85;;;;;;;2.37;78.81;103229.25;5094120;28;20485;-50
2023/01/24 06:21:41;;;;;;;20.23;10.15;;;;;;;2.39;79.58;103227.47;5094113;28;20052;-50
2023/01/24 06:24:20;;;;;;;22.08;9.77;;;;;;;2.34;79.22;103234.56;5093854;28;20489;-50
2023/01/24 06:26:56;;;;;;;22.20;10.45;;;;;;;2.28;78.87;103237.38;5094016;28;20054;-50
2023/01/24 06:29:23;;;;;;;21.77;9.82;;;;;;;2.35;78.96;103231.06;5094218;28;20040;-52
2023/01/24 06:35:11;;;;;;;23.00;9.65;;;;;;;2.41;78.62;103238.75;5070751;28;20374;-51
2023/01/24 06:37:48;;;;;;;22.55;10.50;;;;;;;2.47;79.23;103240.34;5070211;28;20123;-52
2023/01/24 06:40:18;;;;;;;22.67;10.60;;;;;;;2.53;79.44;103242.84;5070140;28;20049;-52
2023/01/24 06:42:46;;;;;;;23.65;11.00;;;;;;;2.54;78.91;103243.69;5070086;28;20071;-52
2023/01/24 06:45:13;;;;;;;23.45;11.13;;;;;;;2.58;78.88;103240.06;5069811;28;20065;-52
2023/01/24 06:47:40;;;;;;;25.38;11.00;;;;;;;2.56;78.68;103239.25;5070134;28;20051;-53
2023/01/24 06:50:11;;;;;;;21.17;10.95;;;;;;;2.52;78.28;103250.72;5069459;28;20131;-50
2023/01/24 06:52:38;;;;;;;27.60;11.05;;;;;;;2.56;78.24;103252.34;5069940;28;20102;-52
2023/01/24 06:55:05;;;;;;;23.17;10.93;;;;;;;2.41;78.72;103246.63;5069627;28;20053;-53
2023/01/24 06:57:33;;;;;;;24.52;11.80;;;;;;;2.41;79.00;103251.00;5064181;28;20494;-51
2023/01/24 06:59:59;;;;;;;24.38;12.48;;;;;;;2.49;79.03;103256.88;5047092;28;20049;-52
2023/01/24 07:02:26;;;;;;;23.63;12.07;;;;;;;2.51;78.97;103255.13;5049817;28;20049;-52
2023/01/24 07:04:54;;;;;;;25.45;12.43;;;;;;;2.67;78.21;103258.16;5049967;28;20037;-51
2023/01/24 07:07:21;;;;;;;25.25;11.77;;;;;;;2.66;78.92;103252.06;5057563;28;20092;-52
2023/01/24 07:09:47;;;;;;;26.70;12.32;;;;;;;2.71;78.19;103257.22;5068835;28;20073;-53
2023/01/24 07:12:14;;;;;;;33.80;12.57;;;;;;;2.63;78.34;103265.25;5069413;28;20427;-52
2023/01/24 07:14:41;;;;;;;26.52;12.93;;;;;;;2.64;77.91;103267.00;5069922;28;20068;-53
2023/01/24 07:17:08;;;;;;;27.15;12.50;;;;;;;2.79;78.00;103268.34;5069978;28;20047;-51
2023/01/24 07:19:35;;;;;;;28.02;12.80;;;;;;;2.71;78.61;103272.06;5069594;28;20045;-53
2023/01/24 07:22:02;;;;;;;35.58;14.88;;;;;;;2.66;77.51;103267.81;5069707;28;20436;-53
2023/01/24 07:24:30;;;;;;;29.77;13.00;;;;;;;2.64;77.73;103279.25;5069488;28;20116;-52
2023/01/24 07:26:57;;;;;;;28.35;12.20;;;;;;;2.47;78.20;103275.31;5069523;28;20383;-53
2023/01/24 07:29:24;;;;;;;30.30;13.68;;;;;;;2.17;79.11;103276.91;5069408;28;20051;-52
2023/01/24 07:31:52;;;;;;;30.00;12.95;;;;;;;2.21;78.68;103282.94;5069698;28;20064;-52
2023/01/24 07:34:19;;;;;;;30.83;13.80;;;;;;;2.35;79.15;103287.81;5068913;28;20087;-51
2023/01/24 07:36:46;;;;;;;29.77;13.43;;;;;;;2.51;79.23;103291.81;5069138;28;20044;-52
2023/01/24 07:39:15;;;;;;;35.25;13.25;;;;;;;2.46;78.34;103294.53;5069313;28;20123;-52
2023/01/24 07:41:43;;;;;;;33.75;14.35;;;;;;;2.49;78.36;103293.56;5069003;28;20053;-51
2023/01/24 07:44:12;;;;;;;29.63;13.77;;;;;;;2.37;78.40;103297.38;5066952;28;20056;-50
2023/01/24 07:46:39;;;;;;;34.30;13.98;;;;;;;2.34;78.29;103297.44;5054564;28;20049;-52
2023/01/24 07:49:06;;;;;;;32.63;14.27;;;;;;;2.35;78.54;103300.91;5038062;28;20039;-51
2023/01/24 07:51:32;;;;;;;33.67;15.38;;;;;;;2.53;79.59;103292.63;5028468;28;20076;-51
2023/01/24 07:53:59;;;;;;;33.67;14.38;;;;;;;2.43;78.01;103305.06;5034977;28;20048;-49
2023/01/24 07:56:26;;;;;;;38.42;15.52;;;;;;;2.56;78.02;103294.28;5055191;28;20037;-53
2023/01/24 07:58:53;;;;;;;37.90;15.13;;;;;;;2.62;77.92;103299.34;5042004;28;20045;-51
2023/01/24 08:01:21;;;;;;;39.30;16.20;;;;;;;2.56;78.05;103291.66;5038487;28;20140;-52
2023/01/24 08:03:47;;;;;;;40.88;15.80;;;;;;;2.57;77.90;103304.75;5050512;28;20040;-51
2023/01/24 08:06:17;;;;;;;36.78;14.40;;;;;;;2.65;78.24;103299.28;5045578;28;20053;-50
2023/01/24 08:08:43;;;;;;;36.00;15.43;;;;;;;2.66;77.57;103304.50;5025759;28;20140;-52
2023/01/24 08:11:13;;;;;;;35.58;16.40;;;;;;;2.44;77.43;103305.97;5051566;28;20560;-53
2023/01/24 08:13:40;;;;;;;36.88;15.60;;;;;;;2.51;77.51;103307.53;5021704;28;20038;-53
2023/01/24 08:16:06;;;;;;;40.63;17.38;;;;;;;2.47;78.87;103304.13;5051198;28;20059;-52
2023/01/24 08:18:34;;;;;;;36.90;15.63;;;;;;;2.49;77.98;103312.81;5034192;28;20399;-52
2023/01/24 08:21:01;;;;;;;34.45;15.55;;;;;;;2.46;78.09;103318.09;5052307;28;20071;-52
2023/01/24 08:23:27;;;;;;;34.50;15.45;;;;;;;2.42;77.83;103313.84;5001406;28;20041;-52
2023/01/24 08:25:57;;;;;;;36.33;15.63;;;;;;;2.59;78.08;103316.03;5031324;28;20106;-51
2023/01/24 08:28:24;;;;;;;38.00;15.88;;;;;;;2.65;78.10;103310.63;5038089;28;20057;-51
2023/01/24 08:30:51;;;;;;;37.67;15.13;;;;;;;2.62;77.54;103313.34;5028528;28;20061;-52
2023/01/24 08:33:18;;;;;;;38.13;15.30;;;;;;;2.62;77.43;103320.31;5033116;28;20069;-50
2023/01/24 08:35:46;;;;;;;36.17;15.25;;;;;;;2.72;77.05;103323.59;5049721;28;20726;-52
2023/01/24 08:38:14;;;;;;;41.15;16.20;;;;;;;2.63;77.06;103322.06;5035110;28;20053;-51
2023/01/24 08:40:41;;;;;;;35.38;15.93;;;;;;;2.74;77.13;103325.25;5049186;28;20676;-50
2023/01/24 08:43:15;;;;;;;35.28;15.15;;;;;;;2.83;76.45;103330.25;5016624;28;20676;-52
2023/01/24 08:45:41;;;;;;;34.20;16.15;;;;;;;2.92;76.49;103333.56;5036457;28;20068;-51
2023/01/24 08:48:08;;;;;;;29.55;14.77;;;;;;;2.63;77.05;103333.41;5024051;28;20050;-51
2023/01/24 08:50:34;;;;;;;34.58;16.35;;;;;;;2.56;77.26;103334.44;5045391;28;20072;-52
2023/01/24 08:53:01;;;;;;;36.65;16.63;;;;;;;2.32;78.02;103330.69;5022966;28;20053;-52
2023/01/24 08:55:28;;;;;;;38.40;16.25;;;;;;;2.28;78.27;103345.63;5049173;28;20573;-51
2023/01/24 08:58:03;;;;;;;34.47;15.93;;;;;;;2.32;78.52;103354.25;5028748;28;20080;-52
2023/01/24 09:00:31;;;;;;;35.67;15.45;;;;;;;2.37;78.83;103346.31;5036819;28;20103;-51
2023/01/24 09:03:00;;;;;;;33.83;15.88;;;;;;;2.42;79.08;103344.41;5021254;28;20096;-51
2023/01/24 09:05:29;;;;;;;39.22;17.23;;;;;;;2.41;79.11;103345.31;5048367;28;20107;-52
2023/01/24 09:07:56;;;;;;;37.83;15.68;;;;;;;2.55;77.98;103339.72;5044384;28;20432;-50
2023/01/24 09:10:23;;;;;;;42.70;16.23;;;;;;;2.52;77.66;103350.31;5024363;28;20045;-52
2023/01/24 09:12:49;;;;;;;37.65;16.85;;;;;;;2.49;78.65;103348.59;5045410;28;20040;-51
2023/01/24 09:15:16;;;;;;;35.13;15.55;;;;;;;2.59;78.15;103344.88;5026787;28;20041;-52
2023/01/24 09:17:44;;;;;;;36.10;15.90;;;;;;;2.49;78.11;103349.50;5050901;28;20493;-52
2023/01/24 09:20:11;;;;;;;34.08;15.55;;;;;;;2.72;78.34;103347.19;5010852;28;20445;-51
2023/01/24 09:22:38;;;;;;;36.63;16.48;;;;;;;2.82;77.72;103348.66;5040515;28;20045;-52
2023/01/24 09:25:07;;;;;;;34.47;15.30;;;;;;;2.90;77.22;103351.09;5016688;28;20491;-52
2023/01/24 09:27:35;;;;;;;32.92;15.85;;;;;;;2.87;76.98;103349.41;5040356;28;20590;-51
2023/01/24 09:30:04;;;;;;;32.75;15.82;;;;;;;2.81;76.33;103355.66;5045488;28;20098;-51
2023/01/24 09:32:31;;;;;;;31.75;16.08;;;;;;;2.88;76.54;103351.13;5035103;28;20091;-52
2023/01/24 09:34:57;;;;;;;34.05;16.38;;;;;;;2.75;76.82;103366.31;5026382;28;20514;-51
2023/01/24 09:37:24;;;;;;;38.20;16.20;;;;;;;2.87;76.75;103362.50;5034716;28;20445;-51
2023/01/24 09:39:55;;;;;;;33.80;14.98;;;;;;;2.67;77.83;103369.13;5034864;28;20536;-51
2023/01/24 09:42:39;;;;;;;40.58;16.30;;;;;;;2.92;77.42;103363.25;5038635;28;20048;-53
2023/01/24 09:48:03;;;;;;;33.97;16.23;;;;;;;3.00;76.67;103361.31;5071607;28;20411;-53
2023/01/24 09:50:42;;;;;;;34.88;15.73;;;;;;;3.13;76.64;103368.81;5074924;28;20095;-53
2023/01/24 09:53:18;;;;;;;36.25;16.88;;;;;;;3.17;76.32;103367.84;5031023;28;20052;-53
2023/01/24 09:55:45;;;;;;;35.83;16.40;;;;;;;3.04;76.68;103368.19;5029147;28;20048;-53
2023/01/24 09:58:32;;;;;;;35.03;15.88;;;;;;;2.99;76.67;103361.34;5070139;28;20037;-53
2023/01/24 10:01:06;;;;;;;32.45;14.75;;;;;;;2.92;76.38;103365.88;5026577;28;20044;-53
2023/01/24 10:03:33;;;;;;;33.88;15.70;;;;;;;2.99;76.58;103363.97;5076431;28;20052;-53
2023/01/24 10:06:08;;;;;;;32.67;13.93;;;;;;;2.88;77.14;103365.09;5029585;28;20048;-53
2023/01/24 10:08:45;;;;;;;38.38;16.33;;;;;;;3.11;76.59;103368.00;5042731;28;20072;-51
2023/01/24 10:11:27;;;;;;;31.77;15.63;;;;;;;3.08;75.67;103368.97;5042742;28;20445;-53
2023/01/24 10:14:11;;;;;;;33.58;16.13;;;;;;;3.21;76.06;103366.88;5051943;28;20167;-54
2023/01/24 10:17:07;;;;;;;34.90;14.85;;;;;;;3.21;75.30;103365.09;5061520;28;20106;-52
2023/01/24 10:20:14;;;;;;;29.40;15.00;;;;;;;3.09;76.06;103373.28;5053139;28;20048;-51
2023/01/24 10:25:24;;;;;;;33.35;15.60;;;;;;;3.06;75.75;103365.53;5082991;27;20121;-55
2023/01/24 10:27:57;;;;;;;35.70;16.73;;;;;;;2.96;76.83;103364.03;5087617;28;20413;-51
2023/01/24 10:30:45;;;;;;;39.58;15.80;;;;;;;3.03;76.53;103369.06;5111040;27;20043;-54
2023/01/24 10:33:16;;;;;;;33.85;15.85;;;;;;;2.83;76.50;103368.75;5090517;27;20036;-53
2023/01/24 10:35:58;;;;;;;32.05;15.27;;;;;;;2.75;77.01;103368.94;5113299;27;20047;-51
2023/01/24 10:38:27;;;;;;;35.30;15.80;;;;;;;2.89;77.12;103368.56;5108866;28;20044;-54
2023/01/24 10:41:04;;;;;;;33.03;15.05;;;;;;;2.76;76.84;103365.41;5124025;27;20089;-55
2023/01/24 10:43:32;;;;;;;32.97;16.20;;;;;;;2.82;77.65;103374.88;5085775;27;20397;-52
2023/01/24 10:46:11;;;;;;;32.67;16.00;;;;;;;3.00;77.24;103365.66;5085134;27;20374;-53
2023/01/24 10:48:44;;;;;;;36.95;15.15;;;;;;;3.08;76.55;103367.19;5108722;28;20126;-53
2023/01/24 10:51:16;;;;;;;34.60;15.45;;;;;;;3.19;76.42;103368.66;5105011;28;20055;-52
2023/01/24 10:53:45;;;;;;;32.28;14.95;;;;;;;3.17;75.68;103363.47;5090298;28;20393;-54
2023/01/24 10:56:14;;;;;;;32.33;14.95;;;;;;;3.19;76.20;103360.81;5080951;28;20093;-54
2023/01/24 11:01:23;;;;;;;33.63;15.52;;;;;;;3.00;75.73;103363.03;5109625;27;20798;-52
2023/01/24 11:03:52;;;;;;;33.10;15.05;;;;;;;3.05;75.84;103361.16;5088379;28;20401;-52
2023/01/24 11:06:33;;;;;;;29.38;14.60;;;;;;;3.19;75.61;103361.66;5102160;28;20067;-52
2023/01/24 11:09:10;;;;;;;34.90;15.48;;;;;;;3.18;76.55;103359.91;5109167;27;20039;-53
2023/01/24 11:11:46;;;;;;;32.90;15.30;;;;;;;3.36;75.62;103357.69;5087932;27;20523;-53
2023/01/24 11:14:17;;;;;;;28.17;14.32;;;;;;;3.24;74.76;103354.53;5111126;28;20035;-52
2023/01/24 11:16:50;;;;;;;32.80;15.20;;;;;;;3.12;74.81;103346.97;5117336;28;20043;-53
2023/01/24 11:19:38;;;;;;;31.58;15.05;;;;;;;3.21;75.60;103351.97;5098329;27;20123;-52
2023/01/24 11:22:33;;;;;;;34.80;15.43;;;;;;;2.81;75.88;103341.69;5111316;27;20043;-52
2023/01/24 11:25:12;;;;;;;30.83;14.85;;;;;;;3.03;75.39;103336.75;5096291;27;20047;-52
2023/01/24 11:27:49;;;;;;;39.30;15.20;;;;;;;2.98;76.02;103338.63;5104987;28;20039;-52
2023/01/24 11:30:19;;;;;;;30.27;14.50;;;;;;;3.00;75.43;103349.94;5099407;28;20040;-50
2023/01/24 11:33:24;;;;;;;34.15;14.90;;;;;;;2.87;76.10;103346.78;5111041;28;20036;-51
2023/01/24 11:35:59;;;;;;;31.00;15.15;;;;;;;2.99;75.89;103348.22;5110466;27;20054;-54
2023/01/24 11:38:31;;;;;;;32.35;14.35;;;;;;;3.04;75.88;103336.72;5118170;28;20399;-51
2023/01/24 11:41:24;;;;;;;33.33;14.23;;;;;;;3.09;75.53;103336.56;5086535;28;20036;-51
2023/01/24 11:44:21;;;;;;;33.65;14.35;;;;;;;2.91;75.71;103335.31;5119654;28;20089;-54
2023/01/24 11:47:07;;;;;;;35.08;14.40;;;;;;;2.93;76.05;103325.66;5104559;28;20040;-53
2023/01/24 11:52:48;;;;;;;32.28;15.68;;;;;;;3.01;75.51;103328.06;5118966;27;20391;-54
2023/01/24 11:55:35;;;;;;;31.92;15.00;;;;;;;2.87;75.53;103325.78;5114706;27;20556;-54
2023/01/24 11:58:33;;;;;;;31.88;15.50;;;;;;;3.01;75.37;103328.91;5102797;28;20043;-54
2023/01/24 12:01:26;;;;;;;30.83;14.75;;;;;;;3.08;75.42;103332.25;5092256;28;20039;-51
2023/01/24 12:04:21;;;;;;;31.73;15.43;;;;;;;3.10;75.36;103319.09;5106008;28;20044;-54
2023/01/24 12:07:01;;;;;;;31.30;15.13;;;;;;;3.08;75.55;103311.25;5086308;28;20048;-52
2023/01/24 12:09:38;;;;;;;36.28;16.08;;;;;;;3.24;76.46;103309.94;5105544;28;20044;-54
2023/01/24 12:12:32;;;;;;;36.83;15.05;;;;;;;3.39;74.51;103308.63;5072719;27;20393;-54
2023/01/24 12:15:11;;;;;;;36.35;15.15;;;;;;;3.55;75.18;103308.19;5103515;27;20043;-53
2023/01/24 12:18:10;;;;;;;32.67;14.90;;;;;;;3.35;73.85;103301.75;5107868;28;20401;-53
2023/01/24 12:20:52;;;;;;;30.05;14.10;;;;;;;3.11;74.50;103286.69;5099136;27;20056;-54
2023/01/24 12:23:38;;;;;;;;;;;;;;;2.96;75.24;103307.19;5088450;28;20055;-53
2023/01/24 12:26:14;;;;;;;30.20;14.50;;;;;;;3.14;75.74;103305.81;5099928;28;20296;-54
2023/01/24 12:29:06;;;;;;;36.05;15.55;;;;;;;2.83;74.84;103301.41;5096565;27;20048;-54